Time;durP1;ratioP1;P1;durP2;ratioP2;P2;SDS_P1;SDS_P2;PMS_P1;PMS_P2;Temp;Humidity;BMP_temperature;BMP_pressure;BME280_temperature;BME280_humidity;BME280_pressure;Samples;Min_cycle;Max_cycle;Signal;HPM_P1;HPM_P2
2022/01/13 00:01:30;;;;;;;26.73;15.60;;;0.40;93.10;;;;;;5069482;28;20483;-49
2022/01/13 00:03:58;;;;;;;28.90;17.47;;;0.40;93.20;;;;;;5068220;28;20963;-49
2022/01/13 00:06:27;;;;;;;31.00;18.40;;;0.40;93.30;;;;;;5083458;27;20569;-49
2022/01/13 00:08:54;;;;;;;28.17;17.00;;;0.40;93.40;;;;;;5088003;27;20776;-49
2022/01/13 00:11:21;;;;;;;26.60;14.83;;;0.40;93.40;;;;;;5084618;27;20997;-49
2022/01/13 00:13:51;;;;;;;35.50;18.07;;;0.40;93.30;;;;;;5064379;27;20492;-49
2022/01/13 00:16:40;;;;;;;33.67;18.50;;;0.40;93.60;;;;;;5074109;28;20993;-49
2022/01/13 00:19:19;;;;;;;32.43;16.70;;;0.40;92.90;;;;;;5081629;27;20467;-49
2022/01/13 00:21:58;;;;;;;28.43;16.50;;;0.40;93.10;;;;;;5091074;27;20524;-49
2022/01/13 00:24:25;;;;;;;36.73;18.83;;;0.40;93.10;;;;;;5054584;28;20554;-49
2022/01/13 00:26:54;;;;;;;24.97;14.87;;;0.40;93.40;;;;;;5059897;28;20487;-50
2022/01/13 00:29:27;;;;;;;23.27;14.43;;;0.40;93.50;;;;;;5063454;27;20634;-50
2022/01/13 00:31:54;;;;;;;26.47;16.77;;;0.40;93.60;;;;;;5062531;27;20989;-49
2022/01/13 00:34:21;;;;;;;19.33;13.40;;;0.30;93.50;;;;;;5089625;27;20758;-50
2022/01/13 00:36:50;;;;;;;23.73;15.13;;;0.30;93.30;;;;;;5073494;27;20503;-49
2022/01/13 00:39:17;;;;;;;29.50;14.87;;;0.30;93.60;;;;;;5073866;28;21176;-49
2022/01/13 00:41:45;;;;;;;24.50;16.17;;;0.20;93.50;;;;;;5059930;27;20838;-49
2022/01/13 00:44:19;;;;;;;26.57;17.10;;;0.20;93.20;;;;;;5081789;27;20881;-49
2022/01/13 00:46:48;;;;;;;30.47;16.53;;;0.20;93.50;;;;;;5057694;28;20481;-49
2022/01/13 00:49:16;;;;;;;31.23;15.53;;;0.10;93.10;;;;;;5064888;28;20477;-50
2022/01/13 00:51:43;;;;;;;23.73;14.80;;;0.10;93.00;;;;;;5055498;27;20549;-49
2022/01/13 00:54:12;;;;;;;27.00;16.03;;;0.00;93.20;;;;;;5082326;27;20931;-49
2022/01/13 00:56:40;;;;;;;27.13;15.77;;;0.10;93.10;;;;;;5071123;27;20570;-49
2022/01/13 00:59:09;;;;;;;29.43;15.30;;;0.10;93.20;;;;;;5065378;27;20487;-49
2022/01/13 01:01:37;;;;;;;25.50;15.77;;;0.10;93.40;;;;;;5089643;27;20579;-49
2022/01/13 01:04:05;;;;;;;29.20;17.23;;;0.10;93.20;;;;;;5076310;28;20489;-49
2022/01/13 01:06:32;;;;;;;27.70;16.60;;;0.10;93.50;;;;;;5066101;28;20528;-49
2022/01/13 01:08:59;;;;;;;29.03;18.03;;;-0.10;93.20;;;;;;5067586;28;20531;-49
2022/01/13 01:11:28;;;;;;;31.93;16.57;;;-0.10;93.50;;;;;;5063637;28;20574;-50
2022/01/13 01:13:55;;;;;;;31.90;17.60;;;-0.10;93.50;;;;;;5071113;27;20491;-49
2022/01/13 01:16:23;;;;;;;24.00;15.30;;;-0.10;93.90;;;;;;5096988;27;20543;-50
2022/01/13 01:18:54;;;;;;;33.73;18.63;;;-0.10;94.00;;;;;;5101462;27;20847;-49
2022/01/13 01:21:52;;;;;;;21.83;15.20;;;0.00;93.80;;;;;;5085086;28;20488;-50
2022/01/13 01:27:18;;;;;;;29.10;16.50;;;0.10;93.50;;;;;;5051274;28;21311;-49
2022/01/13 01:29:56;;;;;;;28.40;16.70;;;0.10;93.80;;;;;;5080465;28;20528;-49
2022/01/13 01:32:23;;;;;;;22.57;15.37;;;;;;;;;;5073064;28;20495;-48
2022/01/13 01:34:59;;;;;;;31.87;16.90;;;0.10;93.10;;;;;;5069853;28;20869;-48
2022/01/13 01:37:29;;;;;;;25.30;15.57;;;0.10;93.50;;;;;;5089279;28;20902;-49
2022/01/13 01:39:57;;;;;;;26.20;17.27;;;0.10;93.20;;;;;;5072662;28;20492;-49
2022/01/13 01:42:26;;;;;;;24.57;15.70;;;0.10;93.30;;;;;;5068042;28;20507;-48
2022/01/13 01:44:57;;;;;;;33.40;18.93;;;0.10;93.20;;;;;;5097676;28;20565;-48
2022/01/13 01:47:26;;;;;;;30.30;18.03;;;-0.10;93.20;;;;;;5076239;28;20512;-48
2022/01/13 01:49:57;;;;;;;25.93;17.77;;;-0.10;93.40;;;;;;5072691;28;20570;-50
2022/01/13 01:52:24;;;;;;;78.37;24.77;;;0.00;93.40;;;;;;5075744;28;20474;-49
2022/01/13 01:54:51;;;;;;;50.53;23.07;;;-0.10;93.70;;;;;;5069959;28;20476;-49
2022/01/13 01:57:21;;;;;;;64.63;25.77;;;-0.10;93.60;;;;;;5073465;28;20487;-49
2022/01/13 01:59:49;;;;;;;54.00;22.13;;;-0.10;93.70;;;;;;5079432;28;20486;-49
2022/01/13 02:02:16;;;;;;;92.83;26.57;;;0.00;93.80;;;;;;5080955;28;20486;-50
2022/01/13 02:04:44;;;;;;;32.00;16.60;;;0.00;94.00;;;;;;5075464;27;21255;-49
2022/01/13 02:07:12;;;;;;;86.50;27.77;;;0.10;94.50;;;;;;5090653;27;20504;-49
2022/01/13 02:09:42;;;;;;;31.70;20.03;;;0.20;94.70;;;;;;5074470;28;20495;-50
2022/01/13 02:12:14;;;;;;;92.63;29.90;;;0.30;94.60;;;;;;5069836;28;20541;-49
2022/01/13 02:14:55;;;;;;;38.10;19.90;;;0.40;94.70;;;;;;5073511;28;20487;-49
2022/01/13 02:17:26;;;;;;;63.13;23.73;;;0.40;94.70;;;;;;5080270;28;20886;-49
2022/01/13 02:19:54;;;;;;;33.73;20.90;;;0.50;94.80;;;;;;5073822;28;20483;-49
2022/01/13 02:22:24;;;;;;;68.77;24.50;;;0.60;95.00;;;;;;5074599;28;20886;-49
2022/01/13 02:24:51;;;;;;;44.73;20.40;;;0.70;95.10;;;;;;5081254;28;20979;-49
2022/01/13 02:27:18;;;;;;;54.73;24.17;;;0.70;95.10;;;;;;5065155;28;20469;-49
2022/01/13 02:29:45;;;;;;;62.10;22.60;;;0.80;95.30;;;;;;5086032;28;20491;-49
2022/01/13 02:32:12;;;;;;;91.40;27.80;;;0.80;95.60;;;;;;5078281;28;20485;-49
2022/01/13 02:34:38;;;;;;;55.27;20.90;;;0.90;96.30;;;;;;5081708;28;20539;-49
2022/01/13 02:37:05;;;;;;;39.37;18.23;;;0.90;96.30;;;;;;5079362;28;20526;-50
2022/01/13 02:39:34;;;;;;;37.23;17.70;;;0.90;96.40;;;;;;5075475;28;20484;-49
2022/01/13 02:42:03;;;;;;;35.80;16.07;;;1.00;96.40;;;;;;5080919;28;20492;-49
2022/01/13 02:44:31;;;;;;;35.23;17.97;;;1.00;96.60;;;;;;5077893;28;20493;-49
2022/01/13 02:47:10;;;;;;;33.77;17.27;;;1.10;96.70;;;;;;5079062;28;20530;-49
2022/01/13 02:49:37;;;;;;;45.23;18.17;;;1.10;96.80;;;;;;5077610;28;20477;-49
2022/01/13 02:52:05;;;;;;;36.77;18.07;;;1.10;96.80;;;;;;5079681;28;20476;-49
2022/01/13 02:54:33;;;;;;;35.43;17.43;;;1.20;97.00;;;;;;5080562;28;21060;-49
2022/01/13 02:57:00;;;;;;;39.37;16.27;;;1.20;97.20;;;;;;5081523;28;20541;-49
2022/01/13 02:59:27;;;;;;;45.80;20.07;;;1.20;97.20;;;;;;5075396;28;21263;-49
2022/01/13 03:01:53;;;;;;;40.40;18.33;;;1.20;97.10;;;;;;5075664;28;20480;-49
2022/01/13 03:04:22;;;;;;;40.17;18.00;;;1.20;97.40;;;;;;5077529;28;20489;-49
2022/01/13 03:06:49;;;;;;;31.20;15.57;;;1.30;97.40;;;;;;5070947;27;20483;-50
2022/01/13 03:09:16;;;;;;;39.90;17.20;;;1.30;97.10;;;;;;5086943;27;21072;-49
2022/01/13 03:11:45;;;;;;;30.90;15.90;;;1.40;97.40;;;;;;5071824;27;20481;-49
2022/01/13 03:14:13;;;;;;;40.70;18.47;;;1.40;97.40;;;;;;5077041;28;20515;-49
2022/01/13 03:16:41;;;;;;;38.70;16.67;;;1.40;97.50;;;;;;5065730;28;20741;-49
2022/01/13 03:19:08;;;;;;;32.90;13.90;;;1.30;97.50;;;;;;5094682;27;20709;-49
2022/01/13 03:21:35;;;;;;;33.17;16.17;;;1.30;97.60;;;;;;5085734;27;20492;-49
2022/01/13 03:24:06;;;;;;;30.97;14.43;;;1.30;97.80;;;;;;5080834;28;20507;-48
2022/01/13 03:26:33;;;;;;;32.07;15.13;;;1.30;97.70;;;;;;5077343;28;20485;-49
2022/01/13 03:29:15;;;;;;;35.80;15.30;;;1.30;97.80;;;;;;5070494;28;20564;-49
2022/01/13 03:31:43;;;;;;;42.47;17.60;;;1.30;97.80;;;;;;5071523;28;20496;-49
2022/01/13 03:34:10;;;;;;;36.67;17.23;;;1.40;98.00;;;;;;5077749;28;20575;-49
2022/01/13 03:36:37;;;;;;;41.53;16.97;;;1.40;98.00;;;;;;5084777;28;20863;-49
2022/01/13 03:39:05;;;;;;;36.53;19.27;;;1.40;97.90;;;;;;5079486;27;20492;-48
2022/01/13 03:41:33;;;;;;;44.20;15.50;;;1.50;97.70;;;;;;5078939;28;20834;-47
2022/01/13 03:44:05;;;;;;;46.97;15.87;;;1.50;98.00;;;;;;5082792;27;20486;-49
2022/01/13 03:46:33;;;;;;;44.03;17.00;;;1.50;97.80;;;;;;5075950;28;20898;-48
2022/01/13 03:49:00;;;;;;;35.93;15.00;;;1.50;97.80;;;;;;5090583;27;20556;-48
2022/01/13 03:52:17;;;;;;;41.10;17.03;;;1.50;97.90;;;;;;5085040;28;20494;-48
2022/01/13 03:55:26;;;;;;;30.90;15.43;;;1.50;97.90;;;;;;5069835;28;20499;-49
2022/01/13 03:58:35;;;;;;;36.27;15.13;;;1.50;97.80;;;;;;5083731;28;20548;-48
2022/01/13 04:01:38;;;;;;;36.00;16.20;;;1.50;97.80;;;;;;5081651;28;20491;-48
2022/01/13 04:04:05;;;;;;;26.03;14.30;;;1.60;97.90;;;;;;5085710;28;20751;-48
2022/01/13 04:06:40;;;;;;;32.63;16.60;;;1.60;97.90;;;;;;5090132;27;20480;-49
2022/01/13 04:09:10;;;;;;;30.63;14.20;;;1.60;97.60;;;;;;5094245;27;20472;-48
2022/01/13 04:11:37;;;;;;;26.47;12.00;;;1.60;97.80;;;;;;5076157;28;20809;-49
2022/01/13 04:14:06;;;;;;;47.33;15.87;;;1.60;97.80;;;;;;5097715;28;20474;-49
2022/01/13 04:16:36;;;;;;;33.77;14.50;;;1.50;97.90;;;;;;5084899;28;20481;-48
2022/01/13 04:19:06;;;;;;;34.73;16.57;;;1.50;98.40;;;;;;5076730;28;21268;-49
2022/01/13 04:21:34;;;;;;;43.57;15.93;;;1.40;98.10;;;;;;5081907;28;20481;-48
2022/01/13 04:24:04;;;;;;;36.13;14.53;;;1.40;98.20;;;;;;5085950;28;20493;-48
2022/01/13 04:26:34;;;;;;;35.43;15.30;;;1.50;98.30;;;;;;5082748;27;20543;-48
2022/01/13 04:29:16;;;;;;;41.80;14.97;;;1.50;98.00;;;;;;5083561;28;20869;-49
2022/01/13 04:31:46;;;;;;;34.03;15.37;;;1.50;98.30;;;;;;5082926;28;20477;-49
2022/01/13 04:34:13;;;;;;;37.57;16.03;;;1.50;98.30;;;;;;5079782;28;20490;-49
2022/01/13 04:36:40;;;;;;;36.67;15.53;;;1.50;98.30;;;;;;5082349;28;20476;-48
2022/01/13 04:39:09;;;;;;;31.53;14.57;;;1.50;98.40;;;;;;5070181;27;20485;-48
2022/01/13 04:41:38;;;;;;;41.63;16.20;;;1.50;98.30;;;;;;5109127;27;20465;-48
2022/01/13 04:44:08;;;;;;;38.67;16.90;;;1.40;98.50;;;;;;5088795;27;20492;-48
2022/01/13 04:46:34;;;;;;;39.47;15.97;;;1.50;98.50;;;;;;5085429;28;20533;-48
2022/01/13 04:49:03;;;;;;;41.13;18.03;;;1.60;98.10;;;;;;5078315;28;20987;-48
2022/01/13 04:51:30;;;;;;;43.63;14.67;;;1.70;98.50;;;;;;5078847;28;20474;-48
2022/01/13 04:53:57;;;;;;;28.03;14.50;;;1.70;98.30;;;;;;5082829;28;20482;-49
2022/01/13 04:56:30;;;;;;;40.87;15.20;;;1.70;97.80;;;;;;5077240;28;20473;-48
2022/01/13 04:58:59;;;;;;;35.10;14.43;;;1.70;98.10;;;;;;5071413;28;20477;-48
2022/01/13 05:01:26;;;;;;;35.93;13.70;;;1.60;97.80;;;;;;5070616;28;20534;-48
2022/01/13 05:03:52;;;;;;;43.77;17.00;;;1.60;98.10;;;;;;5084341;28;20480;-48
2022/01/13 05:06:21;;;;;;;32.50;13.30;;;1.50;98.30;;;;;;5077316;28;20478;-49
2022/01/13 05:08:48;;;;;;;45.50;14.30;;;1.50;98.40;;;;;;5088153;28;20477;-49
2022/01/13 05:11:15;;;;;;;34.00;16.97;;;1.50;98.50;;;;;;5081765;28;20560;-49
2022/01/13 05:13:43;;;;;;;49.27;12.97;;;1.50;98.60;;;;;;5080167;28;20481;-51
2022/01/13 05:16:17;;;;;;;37.93;14.10;;;1.50;98.50;;;;;;5082918;28;20501;-48
2022/01/13 05:18:50;;;;;;;28.60;12.57;;;1.50;98.60;;;;;;5059188;27;20972;-48
2022/01/13 05:21:22;;;;;;;37.67;16.50;;;1.50;98.60;;;;;;5061964;28;20854;-49
2022/01/13 05:23:52;;;;;;;38.20;15.67;;;1.50;98.70;;;;;;5066579;28;20485;-50
2022/01/13 05:26:20;;;;;;;38.73;14.60;;;1.50;98.70;;;;;;5076148;28;20566;-49
2022/01/13 05:28:46;;;;;;;41.17;13.97;;;1.50;98.70;;;;;;5086991;28;20461;-48
2022/01/13 05:31:13;;;;;;;27.17;12.27;;;1.50;98.70;;;;;;5081549;28;20474;-49
2022/01/13 05:33:40;;;;;;;43.77;16.10;;;1.50;99.00;;;;;;5078965;28;20511;-48
2022/01/13 05:36:07;;;;;;;46.23;15.27;;;1.50;98.80;;;;;;5088208;28;20486;-48
2022/01/13 05:38:34;;;;;;;32.63;14.20;;;1.60;98.50;;;;;;5081337;28;20500;-48
2022/01/13 05:41:02;;;;;;;35.83;13.03;;;1.60;98.70;;;;;;5079419;28;20534;-49
2022/01/13 05:43:29;;;;;;;44.73;17.47;;;1.60;98.70;;;;;;5080593;28;20489;-48
2022/01/13 05:45:55;;;;;;;61.07;15.50;;;1.50;98.70;;;;;;5066757;27;20482;-48
2022/01/13 05:48:22;;;;;;;41.00;17.77;;;1.50;98.70;;;;;;5103341;27;20729;-47
2022/01/13 05:50:49;;;;;;;39.60;16.70;;;1.50;98.70;;;;;;5095393;27;20538;-48
2022/01/13 05:53:16;;;;;;;36.30;14.27;;;1.60;98.80;;;;;;5076394;28;21340;-48
2022/01/13 05:55:43;;;;;;;42.30;15.97;;;1.60;98.70;;;;;;5080386;28;20485;-48
2022/01/13 05:58:11;;;;;;;39.87;14.03;;;1.60;98.60;;;;;;5079592;28;20489;-50
2022/01/13 06:00:38;;;;;;;53.77;13.17;;;1.60;98.60;;;;;;5075308;28;21226;-49
2022/01/13 06:03:05;;;;;;;44.67;14.70;;;1.50;98.60;;;;;;5087505;27;20492;-48
2022/01/13 06:05:32;;;;;;;48.17;15.27;;;1.50;98.70;;;;;;5081644;27;20584;-48
2022/01/13 06:07:59;;;;;;;32.40;14.20;;;1.50;98.80;;;;;;5073039;28;20489;-48
2022/01/13 06:10:26;;;;;;;39.90;14.53;;;1.40;98.70;;;;;;5082221;28;20485;-48
2022/01/13 06:12:54;;;;;;;40.50;14.40;;;1.50;98.80;;;;;;5073228;28;20519;-48
2022/01/13 06:15:24;;;;;;;40.50;12.43;;;1.50;98.90;;;;;;5089577;28;20485;-48
2022/01/13 06:17:53;;;;;;;33.87;13.20;;;1.50;98.70;;;;;;5058355;27;20503;-48
2022/01/13 06:20:22;;;;;;;56.33;15.40;;;1.50;98.80;;;;;;5101959;27;20486;-49
2022/01/13 06:22:50;;;;;;;41.17;15.17;;;1.50;98.70;;;;;;5076591;28;20502;-50
2022/01/13 06:25:17;;;;;;;37.10;16.30;;;1.50;98.70;;;;;;5075634;28;20488;-49
2022/01/13 06:27:45;;;;;;;40.57;17.23;;;1.50;98.50;;;;;;5070064;28;20860;-48
2022/01/13 06:30:15;;;;;;;43.00;17.20;;;1.50;98.70;;;;;;5078196;28;20944;-49
2022/01/13 06:32:44;;;;;;;33.87;15.70;;;1.60;98.70;;;;;;5081598;28;20892;-48
2022/01/13 06:35:12;;;;;;;42.37;16.23;;;1.60;98.60;;;;;;5059606;28;20482;-49
2022/01/13 06:37:40;;;;;;;38.13;17.50;;;1.70;98.70;;;;;;5081695;28;20493;-49
2022/01/13 06:40:09;;;;;;;51.23;18.20;;;1.70;98.60;;;;;;5077718;28;21009;-48
2022/01/13 06:42:36;;;;;;;47.10;17.33;;;1.70;98.60;;;;;;5084320;28;20481;-48
2022/01/13 06:45:04;;;;;;;38.03;15.80;;;1.70;98.60;;;;;;5075363;28;20477;-48
2022/01/13 06:47:31;;;;;;;41.20;17.93;;;1.80;98.60;;;;;;5080168;28;20502;-48
2022/01/13 06:49:59;;;;;;;46.70;17.93;;;1.80;98.60;;;;;;5084244;27;20495;-48
2022/01/13 06:52:26;;;;;;;36.43;14.57;;;1.90;98.50;;;;;;5071616;28;20536;-48
2022/01/13 06:54:53;;;;;;;48.10;19.10;;;1.90;98.40;;;;;;5078350;28;21021;-48
2022/01/13 06:57:20;;;;;;;45.30;18.80;;;1.90;98.40;;;;;;5086701;27;21010;-49
2022/01/13 06:59:47;;;;;;;42.23;16.20;;;1.90;98.30;;;;;;5090810;27;21192;-48
2022/01/13 07:02:14;;;;;;;43.23;19.03;;;1.90;98.20;;;;;;5078064;27;20557;-49
2022/01/13 07:04:42;;;;;;;40.80;17.60;;;1.90;98.40;;;;;;5065976;28;20916;-49
2022/01/13 07:07:11;;;;;;;46.03;18.70;;;1.80;98.30;;;;;;5088905;27;20481;-48
2022/01/13 07:09:37;;;;;;;39.43;14.70;;;1.80;98.40;;;;;;5072292;27;20486;-48
2022/01/13 07:12:05;;;;;;;67.63;19.33;;;1.80;98.50;;;;;;5067881;28;20534;-48
2022/01/13 07:14:31;;;;;;;47.37;18.13;;;1.80;98.50;;;;;;5088272;28;20483;-48
2022/01/13 07:16:58;;;;;;;42.40;16.17;;;1.80;98.40;;;;;;5079860;28;20927;-48
2022/01/13 07:19:25;;;;;;;47.73;16.47;;;1.80;98.40;;;;;;5077969;28;20496;-48
2022/01/13 07:21:52;;;;;;;43.67;17.03;;;1.70;98.40;;;;;;5059440;28;20478;-48
2022/01/13 07:24:20;;;;;;;37.80;12.60;;;1.70;98.40;;;;;;5071783;28;20478;-48
2022/01/13 07:26:46;;;;;;;45.37;16.37;;;1.60;98.40;;;;;;5078685;28;20493;-48
2022/01/13 07:29:13;;;;;;;38.17;14.03;;;1.60;98.50;;;;;;5076654;28;20482;-49
2022/01/13 07:31:40;;;;;;;52.70;17.50;;;1.60;98.50;;;;;;5071845;28;20482;-48
2022/01/13 07:34:07;;;;;;;51.57;16.80;;;1.60;98.70;;;;;;5073813;28;20491;-49
2022/01/13 07:36:36;;;;;;;41.13;17.70;;;1.60;98.70;;;;;;5064086;28;20563;-48
2022/01/13 07:39:05;;;;;;;46.20;17.90;;;1.60;98.70;;;;;;5074682;28;20571;-48
2022/01/13 07:41:33;;;;;;;35.90;14.97;;;1.60;98.80;;;;;;5068475;28;20523;-48
2022/01/13 07:44:01;;;;;;;44.73;17.20;;;1.60;98.70;;;;;;5077548;28;20477;-48
2022/01/13 07:46:28;;;;;;;50.20;17.57;;;1.70;98.50;;;;;;5091625;27;20489;-48
2022/01/13 07:48:54;;;;;;;51.03;15.23;;;1.70;98.80;;;;;;5077171;28;20475;-48
2022/01/13 07:51:22;;;;;;;31.67;12.50;;;1.70;98.70;;;;;;5072458;28;20520;-48
2022/01/13 07:53:49;;;;;;;49.07;19.27;;;1.60;98.60;;;;;;5076333;28;20485;-48
2022/01/13 07:56:16;;;;;;;51.07;18.00;;;1.60;99.00;;;;;;5073825;28;20527;-49
2022/01/13 07:58:46;;;;;;;46.60;16.30;;;1.60;98.80;;;;;;5059593;27;20499;-49
2022/01/13 08:01:13;;;;;;;38.00;14.63;;;1.60;98.80;;;;;;5058203;28;20579;-48
2022/01/13 08:03:40;;;;;;;46.33;18.53;;;1.60;98.90;;;;;;5068955;27;20495;-48
2022/01/13 08:06:07;;;;;;;45.70;18.07;;;1.60;99.00;;;;;;5075538;27;20529;-48
2022/01/13 08:08:35;;;;;;;45.63;16.50;;;1.60;98.90;;;;;;5066554;27;20551;-49
2022/01/13 08:11:03;;;;;;;47.50;16.40;;;1.70;99.00;;;;;;5083949;27;20487;-48
2022/01/13 08:13:30;;;;;;;50.70;18.80;;;1.70;98.80;;;;;;5079017;27;20499;-50
2022/01/13 08:15:58;;;;;;;56.37;19.20;;;1.80;98.80;;;;;;5068554;27;20472;-48
2022/01/13 08:21:09;;;;;;;54.03;17.80;;;1.90;98.90;;;;;;5056623;28;20499;-49
2022/01/13 08:23:36;;;;;;;101.93;22.97;;;1.90;98.50;;;;;;5066351;28;20489;-48
2022/01/13 08:26:03;;;;;;;43.20;16.03;;;1.90;99.10;;;;;;5052911;28;20481;-48
2022/01/13 08:28:30;;;;;;;48.93;15.57;;;1.90;98.70;;;;;;5068847;28;20486;-48
2022/01/13 08:30:58;;;;;;;56.43;17.23;;;1.90;98.50;;;;;;5067964;28;20482;-48
2022/01/13 08:33:26;;;;;;;47.10;19.03;;;1.90;98.70;;;;;;5055338;27;20546;-48
2022/01/13 08:35:54;;;;;;;39.60;14.30;;;1.90;98.70;;;;;;5092685;27;20492;-49
2022/01/13 08:38:22;;;;;;;46.80;17.83;;;1.90;98.60;;;;;;5059840;28;20574;-48
2022/01/13 08:40:50;;;;;;;37.40;13.80;;;1.90;98.60;;;;;;5055487;28;20480;-48
2022/01/13 08:43:17;;;;;;;43.20;15.93;;;1.90;98.60;;;;;;5057862;28;20493;-49
2022/01/13 08:45:44;;;;;;;35.43;13.90;;;1.90;98.90;;;;;;5057013;28;20836;-48
2022/01/13 08:48:12;;;;;;;42.97;14.13;;;1.90;98.80;;;;;;5077722;27;21373;-48
2022/01/13 08:50:39;;;;;;;51.77;15.70;;;1.80;98.70;;;;;;5064453;27;20488;-48
2022/01/13 08:53:06;;;;;;;32.63;13.07;;;1.80;98.70;;;;;;5072728;27;20765;-48
2022/01/13 08:55:33;;;;;;;56.10;19.53;;;1.80;98.70;;;;;;5056141;27;20934;-48
2022/01/13 08:58:00;;;;;;;46.73;17.77;;;1.70;98.80;;;;;;5095215;27;20466;-48
2022/01/13 09:00:27;;;;;;;43.40;16.90;;;1.90;98.90;;;;;;5068064;28;20979;-48
2022/01/13 09:02:54;;;;;;;63.30;22.13;;;2.00;98.90;;;;;;5049156;28;20489;-48
2022/01/13 09:05:22;;;;;;;56.73;21.30;;;2.10;99.00;;;;;;5079210;28;20485;-48
2022/01/13 09:07:49;;;;;;;44.93;19.13;;;2.20;98.90;;;;;;5067203;27;20516;-48
2022/01/13 09:10:17;;;;;;;41.67;16.27;;;2.20;98.80;;;;;;5089179;27;20482;-48
2022/01/13 09:12:45;;;;;;;50.93;16.43;;;2.10;98.40;;;;;;5068304;28;20755;-48
2022/01/13 09:15:17;;;;;;;35.47;16.20;;;2.20;98.60;;;;;;5085444;27;20959;-48
2022/01/13 09:17:44;;;;;;;45.93;17.83;;;2.10;98.40;;;;;;5066387;27;20487;-48
2022/01/13 09:20:12;;;;;;;36.83;15.80;;;2.10;98.20;;;;;;5074410;27;20468;-48
2022/01/13 09:22:41;;;;;;;36.10;13.97;;;2.10;98.50;;;;;;5047319;28;20469;-48
2022/01/13 09:25:10;;;;;;;40.40;15.83;;;2.10;98.70;;;;;;5060397;28;20478;-48
2022/01/13 09:27:38;;;;;;;31.70;14.40;;;2.00;98.70;;;;;;5064534;28;20501;-48
2022/01/13 09:30:06;;;;;;;39.20;15.53;;;2.00;98.80;;;;;;5068450;27;20656;-48
2022/01/13 09:32:33;;;;;;;60.00;19.80;;;2.10;98.60;;;;;;5088372;27;20500;-48
2022/01/13 09:34:59;;;;;;;41.80;15.83;;;2.10;98.90;;;;;;5056261;28;20473;-48
2022/01/13 09:37:26;;;;;;;40.93;15.17;;;2.10;98.90;;;;;;5077186;27;20491;-48
2022/01/13 09:39:56;;;;;;;48.93;16.40;;;2.10;98.70;;;;;;5078659;27;20811;-48
2022/01/13 09:42:24;;;;;;;51.03;18.43;;;2.10;98.90;;;;;;5065949;28;21236;-49
2022/01/13 09:44:51;;;;;;;37.57;17.50;;;2.20;98.90;;;;;;5070927;28;20478;-47
2022/01/13 09:47:18;;;;;;;58.57;18.93;;;2.20;99.00;;;;;;5081206;27;20492;-48
2022/01/13 09:49:45;;;;;;;43.37;16.00;;;2.30;99.10;;;;;;5094097;27;20472;-47
2022/01/13 09:52:11;;;;;;;48.33;17.00;;;2.30;98.90;;;;;;5054722;27;20491;-47
2022/01/13 09:54:38;;;;;;;36.33;14.37;;;2.30;98.80;;;;;;5082121;27;20925;-48
2022/01/13 09:57:06;;;;;;;36.10;17.50;;;2.30;98.60;;;;;;5066211;27;20513;-47
2022/01/13 09:59:33;;;;;;;44.50;16.70;;;2.30;98.70;;;;;;5097878;27;20589;-47
2022/01/13 10:02:00;;;;;;;36.40;18.23;;;2.30;98.70;;;;;;5053489;28;20470;-54
2022/01/13 10:04:45;;;;;;;45.90;17.63;;;2.30;98.80;;;;;;5083362;27;20493;-47
2022/01/13 10:07:13;;;;;;;31.43;16.17;;;2.30;98.80;;;;;;5065846;28;20482;-46
2022/01/13 10:09:53;;;;;;;40.00;19.27;;;2.40;98.90;;;;;;5062618;28;20469;-46
2022/01/13 10:12:26;;;;;;;52.83;20.23;;;2.40;98.90;;;;;;5056154;28;20476;-47
2022/01/13 10:17:49;;;;;;;40.10;15.63;;;2.60;99.20;;;;;;5032047;28;20576;-46
2022/01/13 10:20:19;;;;;;;37.67;15.90;;;2.60;98.60;;;;;;5028917;28;20847;-46
2022/01/13 10:22:47;;;;;;;38.37;16.17;;;2.60;98.50;;;;;;5047578;28;20754;-46
2022/01/13 10:25:31;;;;;;;28.90;14.13;;;2.60;98.80;;;;;;5063585;28;20482;-47
2022/01/13 10:28:12;;;;;;;30.27;13.93;;;2.60;98.50;;;;;;5080011;27;20848;-47
2022/01/13 10:30:40;;;;;;;41.50;17.90;;;2.60;98.50;;;;;;5059873;27;20830;-47
2022/01/13 10:33:15;;;;;;;67.50;21.53;;;2.60;98.50;;;;;;5063144;28;20493;-46
2022/01/13 10:35:42;;;;;;;41.43;19.30;;;2.60;98.70;;;;;;5066444;28;20764;-47
2022/01/13 10:38:09;;;;;;;68.30;23.03;;;2.60;98.70;;;;;;5083354;27;21291;-47
2022/01/13 10:40:40;;;;;;;51.67;19.97;;;2.70;98.80;;;;;;5065402;27;20474;-47
2022/01/13 10:43:11;;;;;;;36.17;18.47;;;2.70;98.80;;;;;;5067610;28;20569;-47
2022/01/13 10:45:41;;;;;;;37.30;16.30;;;2.70;98.60;;;;;;5064866;27;20586;-48
2022/01/13 10:48:11;;;;;;;31.60;15.80;;;2.80;98.60;;;;;;5084003;27;20478;-47
2022/01/13 10:50:41;;;;;;;42.00;15.73;;;2.80;98.50;;;;;;5061155;28;20466;-46
2022/01/13 10:53:10;;;;;;;40.30;16.83;;;2.90;98.70;;;;;;5052932;28;20470;-46
2022/01/13 10:55:40;;;;;;;38.57;18.13;;;2.90;98.60;;;;;;5071516;28;20496;-46
2022/01/13 10:58:08;;;;;;;38.17;18.07;;;2.90;98.60;;;;;;5070109;28;20899;-46
2022/01/13 11:00:36;;;;;;;49.20;17.30;;;3.00;98.80;;;;;;5063822;28;20567;-46
2022/01/13 11:03:07;;;;;;;48.50;18.90;;;3.00;98.60;;;;;;5059931;28;20513;-47
2022/01/13 11:05:37;;;;;;;44.03;18.40;;;3.10;98.90;;;;;;5079551;27;20491;-47
2022/01/13 11:08:06;;;;;;;39.57;18.43;;;3.10;98.60;;;;;;5067015;28;20478;-46
2022/01/13 11:10:33;;;;;;;37.83;18.10;;;3.20;98.80;;;;;;5058355;28;20991;-46
2022/01/13 11:13:03;;;;;;;46.47;17.80;;;3.30;98.60;;;;;;5066934;28;20494;-46
2022/01/13 11:15:31;;;;;;;36.53;17.80;;;3.40;98.70;;;;;;5061688;28;20509;-47
2022/01/13 11:18:00;;;;;;;35.83;18.40;;;3.50;98.60;;;;;;5068352;28;20478;-46
2022/01/13 11:20:28;;;;;;;52.93;22.47;;;3.60;98.70;;;;;;5059529;28;20521;-46
2022/01/13 11:22:58;;;;;;;37.57;18.73;;;3.60;98.40;;;;;;5067307;28;20978;-46
2022/01/13 11:25:27;;;;;;;44.60;19.57;;;3.60;98.20;;;;;;5070636;27;20481;-47
2022/01/13 11:27:55;;;;;;;47.43;20.30;;;3.60;98.00;;;;;;5057419;28;20482;-46
2022/01/13 11:30:25;;;;;;;53.87;20.20;;;3.50;97.80;;;;;;5057987;28;21657;-47
2022/01/13 11:32:53;;;;;;;41.20;19.03;;;3.50;98.00;;;;;;5078548;27;20538;-46
2022/01/13 11:35:23;;;;;;;40.47;19.23;;;3.60;98.40;;;;;;5073023;27;20498;-46
2022/01/13 11:37:51;;;;;;;45.43;20.07;;;3.70;98.50;;;;;;5064048;28;20549;-46
2022/01/13 11:40:40;;;;;;;50.80;20.17;;;3.80;98.60;;;;;;5069840;28;21078;-46
2022/01/13 11:43:17;;;;;;;44.90;18.87;;;3.90;98.90;;;;;;5072402;28;20567;-46
2022/01/13 11:45:45;;;;;;;43.73;18.70;;;4.00;98.20;;;;;;5061810;28;20484;-47
2022/01/13 11:48:16;;;;;;;42.53;19.83;;;4.00;98.40;;;;;;5068003;28;21479;-46
2022/01/13 11:50:47;;;;;;;46.13;19.40;;;4.10;98.40;;;;;;5057321;28;20475;-46
2022/01/13 11:53:25;;;;;;;43.23;19.90;;;4.20;97.90;;;;;;5061659;28;20474;-46
2022/01/13 11:55:53;;;;;;;43.83;19.70;;;4.30;98.40;;;;;;5064212;27;20476;-47
2022/01/13 11:58:25;;;;;;;38.90;18.30;;;4.30;97.80;;;;;;5089384;27;20501;-47
2022/01/13 12:00:53;;;;;;;46.67;18.17;;;4.30;98.10;;;;;;5072426;28;20483;-47
2022/01/13 12:03:28;;;;;;;41.80;19.17;;;4.30;97.80;;;;;;5070969;28;20770;-47
2022/01/13 12:05:56;;;;;;;36.10;18.63;;;4.30;97.80;;;;;;5059368;27;20939;-46
2022/01/13 12:08:38;;;;;;;37.73;19.17;;;4.30;97.60;;;;;;5077382;28;21163;-47
2022/01/13 12:11:06;;;;;;;41.20;20.10;;;4.30;97.70;;;;;;5057056;28;20549;-46
2022/01/13 12:13:43;;;;;;;40.47;20.30;;;4.30;98.10;;;;;;5065872;28;20486;-47
2022/01/13 12:16:10;;;;;;;44.20;20.67;;;4.40;97.90;;;;;;5092841;27;20475;-47
2022/01/13 12:19:08;;;;;;;38.43;18.80;;;4.40;97.90;;;;;;5069758;28;20989;-47
2022/01/13 12:21:39;;;;;;;40.57;19.40;;;4.40;97.60;;;;;;5058580;28;20787;-47
2022/01/13 12:24:07;;;;;;;43.43;20.90;;;4.40;97.60;;;;;;5071637;28;20670;-46
2022/01/13 12:26:48;;;;;;;34.30;19.03;;;4.40;97.80;;;;;;5061204;27;20473;-47
2022/01/13 12:29:18;;;;;;;44.00;20.70;;;4.50;98.00;;;;;;5072715;28;20489;-47
2022/01/13 12:31:54;;;;;;;43.67;19.80;;;4.50;97.80;;;;;;5052379;27;20539;-47
2022/01/13 12:34:56;;;;;;;41.63;19.33;;;4.60;97.90;;;;;;5042138;28;20491;-47
2022/01/13 12:37:26;;;;;;;40.73;20.20;;;4.70;98.00;;;;;;4985106;28;20485;-47
2022/01/13 12:39:58;;;;;;;41.40;19.77;;;4.80;97.70;;;;;;4997412;28;20970;-47
2022/01/13 12:42:28;;;;;;;40.73;19.80;;;4.80;97.70;;;;;;4976563;28;20485;-47
2022/01/13 12:47:41;;;;;;;50.90;21.87;;;4.90;97.80;;;;;;5056135;28;20512;-47
2022/01/13 12:50:21;;;;;;;37.40;19.30;;;4.80;97.60;;;;;;5032390;28;20492;-47
2022/01/13 12:52:48;;;;;;;44.53;19.57;;;4.90;97.70;;;;;;5068253;28;20476;-47
2022/01/13 12:55:15;;;;;;;36.63;19.00;;;5.00;97.70;;;;;;5037662;28;20680;-47
2022/01/13 12:57:48;;;;;;;44.03;20.63;;;5.00;97.90;;;;;;5045858;28;20494;-47
2022/01/13 13:00:16;;;;;;;50.10;22.73;;;5.10;98.00;;;;;;5059314;28;20504;-47